Tuesday, May 31, 2016
21:55 UTC
  |  Log In   |  Register Free
Airport Search:

Smithville Municipal Airport
(0A3)

Smithville Municipal Airport Diagram
No Airport Diagram Available

FAA data valid effective May 26 2016 - Jul 21 2016 (unless otherwise noted).

 
 
 
 
 
 
 
 
 
 
 
 
 
 
Current Aviation Weather for 0A3

Weather Summary


Current weather conditions are not available for 0A3 - The nearest NOAA weather station is at SRB, (14.2 nm NE from 0A3)

The most recent METAR observation for 0A3 was updated at: 13:15 UTC
METAR for 0A3 is not available. Closest METAR is for KRNC 17.3 nm NE
KRNC  (17.3 nm NE)   (most recent observation was updated at 31:21 UTC)
312135Z AUTO 00000KT 10SM CLR 31/14 A2992 RMK

KMQY  (34.6 nm SE)   (most recent observation was updated at 31:20 UTC)
312056Z 34005KT 10SM SCT050 33/16 A2991 RMK AO2 58020 T03270155 SLP134

TAF for 0A3 is not available.
GlobalAir.com is loading additional information.
 Current Weather at MQY
91.0 F° (32.7 C°)

Southeast winds at 6.9 mph
Pressure:
29.94 in
Humidity:
35%
Wind:
Southeast at 6.9 mph
Dew Point:
59.9 F° (15.5 C°)
Visibility:
10.00 mi
0A3 NOAA Radar




Find All Airport Services Find A Hotel Find A Rental Car Find A Golf Course Find A Restaurant $100 Hamburger



Airport Weather Forecast for 0A3

Translated METAR for KSRB (2135 UTC)
METAR:
KSRB 312135Z AUTO 06005KT 10SM FEW055 29/20 A2992 RMK
Conditions at:
KSRB (Upper Cumberland Rgnl, TN) observed 2135 UTC 31 May 2016
Temperature:
29°C (84.2°F)
Dewpoint:
20°C (68°F) [RH = 58.3]
Pressure:
29.92 inches Hg (1013.2 mb)
Winds:
from the ENE (060 degrees) at 5.8 mph (5 knots: 2.6 m/s)
Visibility:
10 mile(s)
Ceiling:
at least 12,000 feet AGL
Clouds:
Few Clouds at 5,500 feet AGL
Remarks:
site is un-manned

Translated TAF for TAF for 0A3 is not available. Refer to local area forecast.
FBO's on the Field
FBO Company Facility Photos Services Transportation Aviation Fuel Prices: Prices include tax
Catering Weather Repair Courtesy Rental Type 100LL JetA JetA+ MOGAS 8087
 
Smithville Municipal Airport

This FBO has not yet been rated
FS:Shell
Last Updated: May-18
Login to update fuel prices
SS:
Contact Smithville Municipal AirportMore FBO Information
 
Add another FBO Facility Photos Catering Weather Repair Courtesy Rental Type 100LL JetA JetA+ MOGAS 8087
Services Transportation Aviation Fuel Prices: Prices include tax


model-print
model-print
model-print
model-print